createdAt,value
2023-03-10T00:01:40.215Z,4.50
2023-03-10T00:04:07.034Z,4.14
2023-03-10T00:06:37.514Z,4.49
2023-03-10T00:09:04.791Z,4.32
2023-03-10T00:11:31.481Z,4.40
2023-03-10T00:13:58.078Z,4.53
2023-03-10T00:16:30.893Z,4.63
2023-03-10T00:18:57.728Z,4.60
2023-03-10T00:21:32.247Z,4.49
2023-03-10T00:23:59.616Z,4.66
2023-03-10T00:26:28.168Z,4.70
2023-03-10T00:28:57.392Z,4.73
2023-03-10T00:31:27.303Z,4.73
2023-03-10T00:33:56.159Z,4.35
2023-03-10T00:36:29.930Z,4.73
2023-03-10T00:38:57.436Z,4.80
2023-03-10T00:41:26.507Z,4.82
2023-03-10T00:43:53.287Z,4.79
2023-03-10T00:46:20.849Z,4.75
2023-03-10T00:48:47.701Z,4.72
2023-03-10T00:51:14.358Z,4.84
2023-03-10T00:53:42.293Z,4.86
2023-03-10T00:56:21.543Z,4.80
2023-03-10T00:58:51.861Z,4.88
2023-03-10T01:01:30.666Z,4.91
2023-03-10T01:04:01.088Z,4.88
2023-03-10T01:06:28.042Z,4.85
2023-03-10T01:08:54.820Z,4.92
2023-03-10T01:11:24.794Z,4.90
2023-03-10T01:13:53.047Z,5.01
2023-03-10T01:16:22.166Z,5.03
2023-03-10T01:18:48.905Z,5.05
2023-03-10T01:21:19.006Z,5.05
2023-03-10T01:23:45.847Z,5.00
2023-03-10T01:26:12.756Z,5.01
2023-03-10T01:28:39.694Z,5.08
2023-03-10T01:31:09.149Z,5.09
2023-03-10T01:33:42.934Z,5.06
2023-03-10T01:36:11.351Z,4.98
2023-03-10T01:38:39.765Z,4.94
2023-03-10T01:41:06.923Z,5.06
2023-03-10T01:43:36.016Z,5.01
2023-03-10T01:46:02.695Z,5.02
2023-03-10T01:48:35.980Z,5.04
2023-03-10T01:51:03.757Z,4.86
2023-03-10T01:53:33.150Z,4.93
2023-03-10T01:56:03.174Z,5.02
2023-03-10T01:58:39.136Z,5.00
2023-03-10T02:01:06.908Z,4.87
2023-03-10T02:03:37.544Z,4.97
2023-03-10T02:06:12.478Z,4.87
2023-03-10T02:08:44.390Z,4.91
2023-03-10T02:11:12.091Z,4.93
2023-03-10T02:13:43.515Z,4.86
2023-03-10T02:16:10.544Z,4.97
2023-03-10T02:18:37.246Z,4.98
2023-03-10T02:21:21.444Z,4.99
2023-03-10T02:24:15.133Z,4.99
2023-03-10T02:26:50.569Z,4.96
2023-03-10T02:29:23.953Z,4.99
2023-03-10T02:31:51.580Z,4.88
2023-03-10T02:34:19.030Z,4.89
2023-03-10T02:36:48.463Z,4.97
2023-03-10T02:39:15.173Z,4.99
2023-03-10T02:41:45.606Z,4.90
2023-03-10T02:44:17.000Z,4.90
2023-03-10T02:46:45.805Z,4.98
2023-03-10T02:49:12.654Z,4.95
2023-03-10T02:51:45.257Z,4.98
2023-03-10T02:54:13.165Z,4.94
2023-03-10T02:56:40.890Z,4.83
2023-03-10T02:59:08.093Z,4.99
2023-03-10T03:01:35.100Z,4.93
2023-03-10T03:04:04.233Z,4.74
2023-03-10T03:06:30.911Z,4.83
2023-03-10T03:08:59.884Z,4.84
2023-03-10T03:11:26.695Z,5.04
2023-03-10T03:13:53.682Z,4.90
2023-03-10T03:16:20.544Z,4.90
2023-03-10T03:18:47.422Z,5.03
2023-03-10T03:21:18.303Z,4.98
2023-03-10T03:23:46.317Z,5.11
2023-03-10T03:26:19.755Z,5.14
2023-03-10T03:28:49.991Z,5.00
2023-03-10T03:31:23.474Z,5.13
2023-03-10T03:33:51.176Z,4.61
2023-03-10T03:36:18.646Z,5.11
2023-03-10T03:38:45.321Z,5.20
2023-03-10T03:41:15.086Z,5.12
2023-03-10T03:43:44.111Z,5.21
2023-03-10T03:46:10.796Z,5.23
2023-03-10T03:48:40.051Z,5.12
2023-03-10T03:51:06.903Z,5.04
2023-03-10T03:53:34.068Z,5.18
2023-03-10T03:56:03.101Z,5.15
2023-03-10T03:58:32.117Z,5.10
2023-03-10T04:01:01.161Z,5.26
2023-03-10T04:03:27.945Z,5.27
2023-03-10T04:05:57.123Z,5.21
2023-03-10T04:08:26.668Z,5.20
2023-03-10T04:10:55.155Z,5.30
2023-03-10T04:13:21.820Z,5.29
2023-03-10T04:15:50.981Z,5.28
2023-03-10T04:18:20.178Z,5.26
2023-03-10T04:20:49.364Z,5.30
2023-03-10T04:23:18.413Z,5.17
2023-03-10T04:25:45.182Z,5.30
2023-03-10T04:28:11.891Z,5.17
2023-03-10T04:30:42.188Z,5.34
2023-03-10T04:33:12.669Z,5.25
2023-03-10T04:35:44.076Z,5.29
2023-03-10T04:38:10.755Z,5.10
2023-03-10T04:40:37.607Z,5.17
2023-03-10T04:43:04.898Z,5.25
2023-03-10T04:45:33.957Z,3.67
2023-03-10T04:48:00.876Z,4.37
2023-03-10T04:50:27.686Z,5.26
2023-03-10T04:52:54.442Z,5.21
2023-03-10T04:55:21.156Z,5.33
2023-03-10T04:57:50.423Z,5.36
2023-03-10T05:00:17.470Z,5.31
2023-03-10T05:02:46.472Z,5.41
2023-03-10T05:05:13.149Z,5.43
2023-03-10T05:07:39.904Z,5.36
2023-03-10T05:10:07.229Z,5.47
2023-03-10T05:12:38.450Z,5.37
2023-03-10T05:15:05.777Z,5.49
2023-03-10T05:17:32.568Z,5.52
2023-03-10T05:19:59.216Z,5.47
2023-03-10T05:22:25.910Z,5.40
2023-03-10T05:24:52.572Z,5.54
2023-03-10T05:27:21.844Z,5.55
2023-03-10T05:29:48.905Z,5.52
2023-03-10T05:32:17.972Z,5.57
2023-03-10T05:34:44.826Z,5.57
2023-03-10T05:37:11.586Z,5.59
2023-03-10T05:39:38.407Z,5.49
2023-03-10T05:42:05.234Z,5.61
2023-03-10T05:44:32.033Z,5.60
2023-03-10T05:46:58.809Z,5.61
2023-03-10T05:49:25.698Z,5.62
2023-03-10T05:51:54.832Z,5.63
2023-03-10T05:54:26.381Z,5.59
2023-03-10T05:56:53.329Z,5.65
2023-03-10T05:59:20.151Z,5.66
2023-03-10T06:01:48.936Z,5.63
2023-03-10T06:04:15.709Z,5.64
2023-03-10T06:06:42.496Z,5.66
2023-03-10T06:09:09.128Z,5.56
2023-03-10T06:11:35.919Z,5.66
2023-03-10T06:14:04.800Z,5.69
2023-03-10T06:16:31.610Z,5.66
2023-03-10T06:18:58.583Z,5.71
2023-03-10T06:21:29.549Z,5.67
2023-03-10T06:23:56.575Z,5.56
2023-03-10T06:26:26.148Z,5.77
2023-03-10T06:28:55.236Z,5.82
2023-03-10T06:31:24.608Z,5.82
2023-03-10T06:33:53.526Z,5.62
2023-03-10T06:36:21.786Z,5.67
2023-03-10T06:38:49.250Z,5.85
2023-03-10T06:41:22.138Z,5.85
2023-03-10T06:43:51.579Z,5.88
2023-03-10T06:46:18.204Z,5.88
2023-03-10T06:48:45.339Z,5.89
2023-03-10T06:51:18.622Z,5.65
2023-03-10T06:53:46.103Z,5.90
2023-03-10T06:56:17.605Z,5.85
2023-03-10T06:58:47.247Z,5.85
2023-03-10T07:01:26.861Z,5.85
2023-03-10T07:03:54.292Z,5.79
2023-03-10T07:06:21.366Z,5.84
2023-03-10T07:08:48.064Z,5.72
2023-03-10T07:11:15.254Z,5.83
2023-03-10T07:13:42.193Z,5.85
2023-03-10T07:16:08.909Z,5.89
2023-03-10T07:18:35.499Z,5.92
2023-03-10T07:21:02.117Z,5.93
2023-03-10T07:23:31.165Z,5.92
2023-03-10T07:25:57.896Z,5.86
2023-03-10T07:28:25.803Z,5.97
2023-03-10T07:30:57.866Z,5.97
2023-03-10T07:33:24.460Z,6.01
2023-03-10T07:35:51.160Z,6.02
2023-03-10T07:38:22.525Z,5.97
2023-03-10T07:40:49.074Z,6.07
2023-03-10T07:43:15.659Z,6.09
2023-03-10T07:45:42.393Z,6.13
2023-03-10T07:48:08.982Z,6.07
2023-03-10T07:50:35.579Z,5.99
2023-03-10T07:53:04.415Z,5.70
2023-03-10T07:55:31.222Z,6.01
2023-03-10T07:58:02.275Z,6.23
2023-03-10T08:00:28.973Z,6.21
2023-03-10T08:02:55.907Z,6.17
2023-03-10T08:05:22.506Z,6.30
2023-03-10T08:07:49.144Z,6.23
2023-03-10T08:10:15.700Z,6.35
2023-03-10T08:12:44.734Z,6.44
2023-03-10T08:15:14.656Z,6.63
2023-03-10T08:17:41.314Z,6.66
2023-03-10T08:20:08.579Z,6.61
2023-03-10T08:22:37.812Z,6.67
2023-03-10T08:25:04.696Z,6.74
2023-03-10T08:27:33.685Z,6.77
2023-03-10T08:30:00.299Z,6.75
2023-03-10T08:32:29.321Z,6.87
2023-03-10T08:34:58.430Z,7.02
2023-03-10T08:37:25.114Z,7.18
2023-03-10T08:39:53.699Z,7.26
2023-03-10T08:42:20.280Z,7.36
2023-03-10T08:44:49.352Z,7.51
2023-03-10T08:47:18.258Z,7.69
2023-03-10T08:49:47.629Z,7.92
2023-03-10T08:52:16.010Z,8.10
2023-03-10T08:54:44.931Z,8.95
2023-03-10T08:57:11.516Z,10.74
2023-03-10T08:59:38.093Z,11.58
2023-03-10T09:02:05.003Z,10.94
2023-03-10T09:04:33.850Z,10.38
2023-03-10T09:07:00.476Z,10.00
2023-03-10T09:09:29.537Z,9.78
2023-03-10T09:11:58.677Z,9.59
2023-03-10T09:14:25.907Z,9.35
2023-03-10T09:16:52.512Z,9.26
2023-03-10T09:19:19.173Z,9.14
2023-03-10T09:21:45.778Z,8.99
2023-03-10T09:24:14.610Z,9.01
2023-03-10T09:26:44.884Z,8.95
2023-03-10T09:29:12.132Z,8.92
2023-03-10T09:31:39.675Z,8.94
2023-03-10T09:34:08.359Z,8.94
2023-03-10T09:36:38.388Z,8.96
2023-03-10T09:39:07.472Z,8.95
2023-03-10T09:42:05.117Z,8.99
2023-03-10T09:45:07.177Z,9.37
2023-03-10T09:47:59.542Z,9.40
2023-03-10T09:50:52.449Z,9.50
2023-03-10T09:53:43.692Z,9.96
2023-03-10T09:56:17.513Z,10.13
2023-03-10T09:59:14.392Z,10.07
2023-03-10T10:01:44.887Z,9.97
2023-03-10T10:04:15.872Z,10.07
2023-03-10T10:06:51.360Z,10.11
2023-03-10T10:09:46.685Z,10.17
2023-03-10T10:12:15.453Z,10.06
2023-03-10T10:14:55.124Z,9.61
2023-03-10T10:18:16.125Z,10.06
2023-03-10T10:21:02.787Z,9.97
2023-03-10T10:23:44.854Z,10.05
2023-03-10T10:26:24.021Z,10.21
2023-03-10T10:29:12.451Z,10.29
2023-03-10T10:31:39.183Z,10.37
2023-03-10T10:34:23.387Z,10.48
2023-03-10T10:36:55.368Z,10.56
2023-03-10T10:39:32.295Z,10.61
2023-03-10T10:42:28.617Z,10.63
2023-03-10T10:44:58.150Z,10.60
2023-03-10T10:47:46.902Z,10.54
2023-03-10T10:50:13.425Z,10.49
2023-03-10T10:52:40.273Z,10.46
2023-03-10T10:55:28.960Z,10.49
2023-03-10T10:58:03.543Z,10.59
2023-03-10T11:00:32.048Z,10.67
2023-03-10T11:03:01.479Z,10.66
2023-03-10T11:05:38.887Z,10.68
2023-03-10T11:08:42.983Z,11.09
2023-03-10T11:11:20.242Z,11.22
2023-03-10T11:14:18.030Z,11.29
2023-03-10T11:16:44.665Z,11.35
2023-03-10T11:19:20.963Z,11.32
2023-03-10T11:21:54.035Z,11.13
2023-03-10T11:24:32.107Z,11.14
2023-03-10T11:27:04.780Z,10.86
2023-03-10T11:30:05.254Z,10.56
2023-03-10T11:32:53.829Z,10.37
2023-03-10T11:35:35.027Z,10.18
2023-03-10T11:38:16.734Z,9.99
2023-03-10T11:40:57.501Z,9.68
2023-03-10T11:43:31.670Z,9.66
2023-03-10T11:46:03.691Z,9.50
2023-03-10T11:48:52.287Z,9.37
2023-03-10T11:51:28.121Z,9.26
2023-03-10T11:54:01.541Z,9.13
2023-03-10T11:56:30.744Z,9.02
2023-03-10T11:58:59.915Z,8.94
2023-03-10T12:01:31.020Z,8.90
2023-03-10T12:04:00.849Z,7.63
2023-03-10T12:06:44.795Z,8.84
2023-03-10T12:09:26.185Z,8.67
2023-03-10T12:11:54.355Z,8.39
2023-03-10T12:14:21.771Z,8.46
2023-03-10T12:16:49.222Z,8.36
2023-03-10T12:19:15.859Z,8.17
2023-03-10T12:21:42.397Z,7.50
2023-03-10T12:24:50.874Z,8.06
2023-03-10T12:27:17.505Z,7.92
2023-03-10T12:29:44.489Z,7.80
2023-03-10T12:32:47.402Z,7.72
2023-03-10T12:35:22.694Z,7.55
2023-03-10T12:37:51.491Z,7.52
2023-03-10T12:41:03.389Z,7.38
2023-03-10T12:43:51.628Z,7.30
2023-03-10T12:46:31.679Z,7.04
2023-03-10T12:49:28.603Z,7.09
2023-03-10T12:52:07.140Z,7.05
2023-03-10T12:55:15.821Z,6.98
2023-03-10T12:57:45.148Z,6.91
2023-03-10T13:00:30.231Z,6.83
2023-03-10T13:03:07.528Z,6.76
2023-03-10T13:05:38.871Z,6.71
2023-03-10T13:08:40.046Z,6.62
2023-03-10T13:11:18.677Z,6.57
2023-03-10T13:13:50.097Z,6.51
2023-03-10T13:16:19.237Z,6.44
2023-03-10T13:18:53.184Z,6.34
2023-03-10T13:21:30.584Z,6.29
2023-03-10T13:23:59.271Z,6.15
2023-03-10T13:26:27.007Z,6.09
2023-03-10T13:29:02.131Z,6.01
2023-03-10T13:31:34.550Z,5.90
2023-03-10T13:34:18.814Z,5.76
2023-03-10T13:36:45.356Z,5.71
2023-03-10T13:39:27.750Z,5.77
2023-03-10T13:41:58.377Z,4.94
2023-03-10T13:44:28.217Z,5.72
2023-03-10T13:47:01.096Z,5.67
2023-03-10T13:49:32.408Z,5.67
2023-03-10T13:52:06.721Z,5.69
2023-03-10T13:54:41.104Z,5.61
2023-03-10T13:57:13.759Z,5.57
2023-03-10T13:59:40.614Z,5.16
2023-03-10T14:02:19.140Z,5.37
2023-03-10T14:04:53.566Z,5.40
2023-03-10T14:07:24.342Z,5.40
2023-03-10T14:10:06.082Z,5.36
2023-03-10T14:12:44.848Z,5.29
2023-03-10T14:15:14.355Z,5.30
2023-03-10T14:17:42.844Z,5.30
2023-03-10T14:20:11.221Z,5.26
2023-03-10T14:22:44.743Z,5.15
2023-03-10T14:25:18.581Z,5.06
2023-03-10T14:28:11.695Z,4.97
2023-03-10T14:30:40.285Z,4.83
2023-03-10T14:33:15.335Z,4.72
2023-03-10T14:35:43.170Z,4.62
2023-03-10T14:38:11.992Z,4.48
2023-03-10T14:40:45.441Z,4.27
2023-03-10T14:43:27.372Z,4.14
2023-03-10T14:45:56.341Z,4.12
2023-03-10T14:48:28.147Z,3.77
2023-03-10T14:50:57.305Z,3.64
2023-03-10T14:53:25.601Z,3.63
2023-03-10T14:55:58.139Z,3.56
2023-03-10T14:58:30.107Z,3.05
2023-03-10T15:00:56.754Z,3.41
2023-03-10T15:03:28.056Z,3.31
2023-03-10T15:05:54.653Z,3.13
2023-03-10T15:08:24.499Z,3.09
2023-03-10T15:10:52.095Z,2.44
2023-03-10T15:13:23.760Z,2.72
2023-03-10T15:15:50.945Z,2.94
2023-03-10T15:18:20.352Z,2.81
2023-03-10T15:20:47.386Z,2.76
2023-03-10T15:23:17.635Z,2.85
2023-03-10T15:25:46.068Z,2.81
2023-03-10T15:28:13.505Z,2.73
2023-03-10T15:30:42.377Z,2.61
2023-03-10T15:33:11.419Z,2.62
2023-03-10T15:35:39.003Z,2.54
2023-03-10T15:38:05.618Z,2.42
2023-03-10T15:40:33.998Z,2.46
2023-03-10T15:43:01.403Z,2.41
2023-03-10T15:45:29.968Z,2.33
2023-03-10T15:47:57.663Z,1.95
2023-03-10T15:50:30.169Z,2.22
2023-03-10T15:52:58.621Z,2.16
2023-03-10T15:55:27.023Z,2.03
2023-03-10T15:57:54.001Z,2.04
2023-03-10T16:00:22.937Z,1.78
2023-03-10T16:02:50.212Z,1.94
2023-03-10T16:05:17.978Z,1.99
2023-03-10T16:07:44.619Z,1.96
2023-03-10T16:10:13.146Z,1.80
2023-03-10T16:12:41.988Z,1.92
2023-03-10T16:15:09.541Z,1.94
2023-03-10T16:17:36.528Z,1.94
2023-03-10T16:20:07.421Z,1.82
2023-03-10T16:22:34.114Z,1.98
2023-03-10T16:25:01.030Z,1.98
2023-03-10T16:27:29.825Z,1.85
2023-03-10T16:29:58.249Z,1.94
2023-03-10T16:32:24.907Z,1.75
2023-03-10T16:34:54.282Z,1.93
2023-03-10T16:37:25.045Z,1.97
2023-03-10T16:39:53.981Z,1.94
2023-03-10T16:42:21.352Z,1.99
2023-03-10T16:44:50.634Z,2.04
2023-03-10T16:47:18.069Z,2.13
2023-03-10T16:49:44.760Z,2.11
2023-03-10T16:52:11.311Z,2.03
2023-03-10T16:54:38.153Z,2.09
2023-03-10T16:57:06.652Z,2.15
2023-03-10T16:59:35.726Z,2.23
2023-03-10T17:02:05.003Z,2.21
2023-03-10T17:04:34.623Z,2.19
2023-03-10T17:07:01.212Z,2.17
2023-03-10T17:09:27.770Z,2.05
2023-03-10T17:11:55.468Z,2.04
2023-03-10T17:14:23.095Z,1.99
2023-03-10T17:16:49.819Z,1.83
2023-03-10T17:19:26.194Z,1.95
2023-03-10T17:21:56.178Z,1.95
2023-03-10T17:24:23.575Z,1.89
2023-03-10T17:26:50.483Z,1.93
2023-03-10T17:29:17.588Z,1.94
2023-03-10T17:31:48.948Z,1.97
2023-03-10T17:34:19.430Z,2.00
2023-03-10T17:36:46.817Z,2.01
2023-03-10T17:39:22.310Z,2.01
2023-03-10T17:41:51.704Z,1.98
2023-03-10T17:44:18.698Z,2.06
2023-03-10T17:46:47.865Z,1.53
2023-03-10T17:49:15.414Z,2.03
2023-03-10T17:51:44.342Z,2.06
2023-03-10T17:54:21.793Z,2.07
2023-03-10T17:56:49.659Z,1.56
2023-03-10T17:59:16.656Z,2.09
2023-03-10T18:01:44.162Z,2.09
2023-03-10T18:04:11.008Z,2.08
2023-03-10T18:06:37.804Z,1.67
2023-03-10T18:09:09.630Z,2.06
2023-03-10T18:11:38.940Z,2.07
2023-03-10T18:14:06.225Z,2.09
2023-03-10T18:16:38.134Z,2.10
2023-03-10T18:19:10.541Z,2.13
2023-03-10T18:21:37.466Z,2.13
2023-03-10T18:24:04.401Z,2.14
2023-03-10T18:26:33.854Z,2.04
2023-03-10T18:29:00.701Z,2.16
2023-03-10T18:31:30.488Z,1.63
2023-03-10T18:33:57.335Z,2.11
2023-03-10T18:36:28.756Z,1.96
2023-03-10T18:38:55.778Z,2.12
2023-03-10T18:41:25.145Z,2.03
2023-03-10T18:43:52.666Z,2.09
2023-03-10T18:46:20.437Z,2.09
2023-03-10T18:48:47.216Z,2.07
2023-03-10T18:51:14.168Z,2.04
2023-03-10T18:53:41.032Z,1.58
2023-03-10T18:56:07.985Z,2.07
2023-03-10T18:58:34.978Z,1.95
2023-03-10T19:01:01.602Z,2.06
2023-03-10T19:03:30.976Z,1.97
2023-03-10T19:05:57.940Z,1.97
2023-03-10T19:08:25.673Z,1.96
2023-03-10T19:10:59.516Z,1.96
2023-03-10T19:13:27.821Z,1.88
2023-03-10T19:15:55.286Z,1.93
2023-03-10T19:18:24.723Z,1.90
2023-03-10T19:20:51.361Z,1.79
2023-03-10T19:23:18.128Z,1.96
2023-03-10T19:25:47.189Z,1.83
2023-03-10T19:28:13.810Z,1.87
2023-03-10T19:30:42.959Z,1.79
2023-03-10T19:33:12.304Z,1.90
2023-03-10T19:35:39.056Z,1.82
2023-03-10T19:38:06.192Z,1.86
2023-03-10T19:40:33.335Z,1.86
2023-03-10T19:43:02.757Z,1.81
2023-03-10T19:45:29.444Z,1.65
2023-03-10T19:47:58.009Z,1.80
2023-03-10T19:50:25.413Z,1.76
2023-03-10T19:52:52.015Z,1.79
2023-03-10T19:55:26.618Z,1.75
2023-03-10T19:57:56.189Z,1.78
2023-03-10T20:00:31.392Z,1.68
2023-03-10T20:03:00.938Z,1.69
2023-03-10T20:05:27.608Z,1.81
2023-03-10T20:07:54.458Z,1.81
2023-03-10T20:10:23.454Z,1.62
2023-03-10T20:12:52.439Z,1.63
2023-03-10T20:15:19.194Z,1.77
2023-03-10T20:17:46.196Z,1.77
2023-03-10T20:20:15.222Z,1.91
2023-03-10T20:22:45.305Z,1.81
2023-03-10T20:25:14.247Z,1.85
2023-03-10T20:27:43.036Z,1.77
2023-03-10T20:30:15.784Z,1.79
2023-03-10T20:32:46.025Z,1.64
2023-03-10T20:35:15.663Z,1.55
2023-03-10T20:37:42.433Z,1.32
2023-03-10T20:40:11.672Z,1.78
2023-03-10T20:42:38.415Z,1.76
2023-03-10T20:45:07.265Z,1.70
2023-03-10T20:47:34.233Z,1.75
2023-03-10T20:50:03.969Z,1.19
2023-03-10T20:52:34.424Z,1.71
2023-03-10T20:55:01.549Z,1.80
2023-03-10T20:57:28.570Z,1.55
2023-03-10T20:59:58.224Z,1.85
2023-03-10T21:02:24.872Z,1.88
2023-03-10T21:04:51.729Z,1.75
2023-03-10T21:07:18.417Z,1.89
2023-03-10T21:09:45.286Z,1.76
2023-03-10T21:12:13.723Z,1.88
2023-03-10T21:14:40.383Z,1.72
2023-03-10T21:17:09.273Z,1.94
2023-03-10T21:19:35.937Z,1.95
2023-03-10T21:22:03.549Z,1.76
2023-03-10T21:24:30.436Z,1.85
2023-03-10T21:27:01.618Z,1.94
2023-03-10T21:29:28.353Z,1.86
2023-03-10T21:31:55.017Z,1.91
2023-03-10T21:34:21.722Z,1.92
2023-03-10T21:36:49.189Z,1.72
2023-03-10T21:39:21.025Z,1.52
2023-03-10T21:41:47.866Z,1.74
2023-03-10T21:44:16.550Z,1.99
2023-03-10T21:46:43.244Z,1.92
2023-03-10T21:49:09.972Z,1.87
2023-03-10T21:51:36.887Z,1.50
2023-03-10T21:54:05.100Z,1.79
2023-03-10T21:56:32.143Z,1.87
2023-03-10T21:58:58.955Z,1.86
2023-03-10T22:01:30.600Z,2.17
2023-03-10T22:03:57.316Z,2.10
2023-03-10T22:06:23.914Z,2.02
2023-03-10T22:08:51.087Z,2.06
2023-03-10T22:11:17.919Z,2.03
2023-03-10T22:13:44.782Z,2.12
2023-03-10T22:16:15.933Z,1.78
2023-03-10T22:18:43.349Z,2.08
2023-03-10T22:21:10.172Z,2.03
2023-03-10T22:23:39.083Z,2.05
2023-03-10T22:26:06.021Z,1.88
2023-03-10T22:28:32.883Z,2.07
2023-03-10T22:30:59.615Z,1.95
2023-03-10T22:33:26.342Z,1.90
2023-03-10T22:35:53.052Z,2.04
2023-03-10T22:38:20.564Z,2.05
2023-03-10T22:40:48.350Z,2.03
2023-03-10T22:43:15.379Z,1.91
2023-03-10T22:45:42.107Z,1.90
2023-03-10T22:48:08.878Z,2.04
2023-03-10T22:50:39.032Z,2.04
2023-03-10T22:53:13.138Z,2.01
2023-03-10T22:55:42.640Z,1.94
2023-03-10T22:58:11.135Z,1.86
2023-03-10T23:00:39.395Z,1.95
2023-03-10T23:03:07.540Z,1.95
2023-03-10T23:05:34.246Z,1.83
2023-03-10T23:08:03.344Z,1.78
2023-03-10T23:10:32.271Z,1.70
2023-03-10T23:13:00.777Z,1.61
2023-03-10T23:15:31.678Z,1.52
2023-03-10T23:17:58.381Z,1.56
2023-03-10T23:20:27.885Z,1.56
2023-03-10T23:22:57.017Z,1.58
2023-03-10T23:25:27.332Z,1.58
2023-03-10T23:27:54.500Z,1.46
2023-03-10T23:30:21.406Z,1.58
2023-03-10T23:32:50.494Z,1.02
2023-03-10T23:35:23.933Z,1.38
2023-03-10T23:37:52.975Z,1.49
2023-03-10T23:40:24.710Z,1.42
2023-03-10T23:42:58.276Z,1.33
2023-03-10T23:45:31.305Z,0.56
2023-03-10T23:48:01.562Z,1.04
2023-03-10T23:50:30.151Z,1.12
2023-03-10T23:52:57.536Z,1.08
2023-03-10T23:55:33.638Z,0.82
2023-03-10T23:58:01.193Z,0.83
